AZU9006 SBPA-SBFI
Flight info
| Callsign | AZU9006 |
|---|---|
| Flight time | 1h 16m |
| Altitude | 30000 |
| Route | NOBEL UZ83 NELUP |
| Aircraft | E195/M-SDE3GILORVW/S |
Departure
| Time | 2026-04-25 01:31 |
|---|---|
| Airport | Porto Alegre-Salgado Filho International Airport (SBPA) |
Arrival
| Time | 2026-04-25 02:47 |
|---|---|
| Airport | Cataratas International Airport (SBFI) |
| Time | Latitude | Longitude | Altitude | Speed | Heading |
|---|---|---|---|---|---|
| 2026-04-25 01:05 | -29.99035 | -51.18076 | 19 ft | 0 kts | 297° |
| 2026-04-25 01:23 | -29.99041 | -51.18064 | 19 ft | 2 kts | 296° |
| 2026-04-25 01:23 | -29.99047 | -51.18048 | 19 ft | 2 kts | 297° |
| 2026-04-25 01:23 | -29.99054 | -51.18034 | 19 ft | 0 kts | 297° |
| 2026-04-25 01:24 | -29.99058 | -51.18023 | 19 ft | 2 kts | 276° |
| 2026-04-25 01:24 | -29.99056 | -51.18006 | 19 ft | 2 kts | 245° |
| 2026-04-25 01:24 | -29.99047 | -51.17992 | 19 ft | 1 kts | 215° |
| 2026-04-25 01:24 | -29.99042 | -51.17989 | 19 ft | 1 kts | 203° |
| 2026-04-25 01:25 | -29.99038 | -51.17987 | 19 ft | 0 kts | 207° |
| 2026-04-25 01:27 | -29.99042 | -51.17989 | 19 ft | 1 kts | 207° |
| 2026-04-25 01:27 | -29.99067 | -51.18004 | 19 ft | 5 kts | 207° |
| 2026-04-25 01:27 | -29.99101 | -51.18024 | 19 ft | 5 kts | 206° |
| 2026-04-25 01:28 | -29.99183 | -51.18071 | 19 ft | 7 kts | 206° |
| 2026-04-25 01:28 | -29.99225 | -51.18107 | 19 ft | 7 kts | 235° |
| 2026-04-25 01:28 | -29.99254 | -51.18164 | 19 ft | 8 kts | 231° |
| 2026-04-25 01:28 | -29.99289 | -51.18192 | 19 ft | 4 kts | 207° |
| 2026-04-25 01:29 | -29.99326 | -51.18214 | 19 ft | 7 kts | 207° |
| 2026-04-25 01:29 | -29.99377 | -51.18245 | 19 ft | 8 kts | 207° |
| 2026-04-25 01:29 | -29.99429 | -51.18259 | 19 ft | 7 kts | 139° |
| 2026-04-25 01:29 | -29.99440 | -51.18203 | 19 ft | 7 kts | 92° |
| 2026-04-25 01:30 | -29.99442 | -51.18126 | 19 ft | 19 kts | 91° |
| 2026-04-25 01:30 | -29.99449 | -51.17702 | 19 ft | 84 kts | 91° |
| 2026-04-25 01:30 | -29.99464 | -51.16801 | 20 ft | 137 kts | 90° |
| 2026-04-25 01:30 | -29.99484 | -51.15573 | 157 ft | 162 kts | 90° |
| 2026-04-25 01:31 | -29.99506 | -51.14251 | 634 ft | 169 kts | 90° |
| 2026-04-25 01:31 | -29.99535 | -51.12924 | 1298 ft | 165 kts | 90° |
| 2026-04-25 01:31 | -29.99562 | -51.11562 | 1739 ft | 184 kts | 90° |
| 2026-04-25 01:31 | -29.99594 | -51.09974 | 2048 ft | 213 kts | 90° |
| 2026-04-25 01:32 | -29.99629 | -51.08230 | 2693 ft | 226 kts | 90° |
| 2026-04-25 01:32 | -29.99337 | -51.06482 | 3426 ft | 233 kts | 59° |
| 2026-04-25 01:32 | -29.98120 | -51.05165 | 3885 ft | 254 kts | 31° |
| 2026-04-25 01:32 | -29.96570 | -51.04104 | 4556 ft | 265 kts | 31° |
| 2026-04-25 01:33 | -29.94965 | -51.02985 | 5398 ft | 270 kts | 31° |
| 2026-04-25 01:33 | -29.93366 | -51.01857 | 6268 ft | 272 kts | 31° |
| 2026-04-25 01:33 | -29.91778 | -51.00732 | 7109 ft | 274 kts | 31° |
| 2026-04-25 01:33 | -29.90138 | -50.99569 | 7945 ft | 277 kts | 31° |
| 2026-04-25 01:34 | -29.88490 | -50.98397 | 8736 ft | 281 kts | 31° |
| 2026-04-25 01:34 | -29.86839 | -50.97221 | 9503 ft | 286 kts | 31° |
| 2026-04-25 01:34 | -29.85129 | -50.96006 | 10261 ft | 290 kts | 31° |
| 2026-04-25 01:34 | -29.83403 | -50.94780 | 10852 ft | 298 kts | 31° |
| 2026-04-25 01:35 | -29.81615 | -50.93509 | 11338 ft | 308 kts | 30° |
| 2026-04-25 01:35 | -29.79723 | -50.92268 | 11768 ft | 318 kts | 17° |
| 2026-04-25 01:35 | -29.77530 | -50.91906 | 12217 ft | 321 kts | 356° |
| 2026-04-25 01:35 | -29.75270 | -50.91951 | 12816 ft | 327 kts | 355° |
| 2026-04-25 01:36 | -29.73003 | -50.91998 | 13439 ft | 330 kts | 355° |
| 2026-04-25 01:36 | -29.70678 | -50.92048 | 14037 ft | 335 kts | 354° |
| 2026-04-25 01:36 | -29.68337 | -50.92097 | 14638 ft | 338 kts | 354° |
| 2026-04-25 01:36 | -29.66028 | -50.92147 | 15318 ft | 337 kts | 354° |
| 2026-04-25 01:37 | -29.63673 | -50.92199 | 16045 ft | 335 kts | 354° |
| 2026-04-25 01:37 | -29.61347 | -50.92250 | 16682 ft | 336 kts | 354° |
| 2026-04-25 01:37 | -29.59011 | -50.92304 | 17288 ft | 338 kts | 354° |
| 2026-04-25 01:37 | -29.56641 | -50.92357 | 17860 ft | 340 kts | 354° |
| 2026-04-25 01:38 | -29.54297 | -50.92406 | 18429 ft | 341 kts | 353° |
| 2026-04-25 01:38 | -29.51919 | -50.92462 | 18975 ft | 344 kts | 353° |
| 2026-04-25 01:38 | -29.49487 | -50.92506 | 19491 ft | 347 kts | 353° |
| 2026-04-25 01:38 | -29.47072 | -50.92554 | 19984 ft | 350 kts | 353° |
| 2026-04-25 01:39 | -29.44634 | -50.92615 | 20486 ft | 353 kts | 353° |
| 2026-04-25 01:39 | -29.42175 | -50.92684 | 20947 ft | 354 kts | 347° |
| 2026-04-25 01:39 | -29.39903 | -50.93529 | 21330 ft | 343 kts | 322° |
| 2026-04-25 01:39 | -29.38287 | -50.95464 | 21799 ft | 335 kts | 296° |
| 2026-04-25 01:40 | -29.37666 | -50.98021 | 22230 ft | 337 kts | 274° |
| 2026-04-25 01:40 | -29.37606 | -51.00706 | 22679 ft | 340 kts | 276° |
| 2026-04-25 01:40 | -29.37122 | -51.03319 | 23163 ft | 339 kts | 290° |
| 2026-04-25 01:40 | -29.36179 | -51.05776 | 23724 ft | 337 kts | 295° |
| 2026-04-25 01:41 | -29.35084 | -51.08134 | 24266 ft | 336 kts | 297° |
| 2026-04-25 01:41 | -29.33927 | -51.10478 | 24823 ft | 335 kts | 297° |
| 2026-04-25 01:41 | -29.32771 | -51.12751 | 25296 ft | 336 kts | 297° |
| 2026-04-25 01:41 | -29.31581 | -51.15044 | 25746 ft | 336 kts | 298° |
| 2026-04-25 01:42 | -29.30378 | -51.17345 | 26169 ft | 337 kts | 297° |
| 2026-04-25 01:42 | -29.29167 | -51.19664 | 26592 ft | 338 kts | 297° |
| 2026-04-25 01:42 | -29.27963 | -51.21977 | 27002 ft | 339 kts | 296° |
| 2026-04-25 01:42 | -29.26768 | -51.24266 | 27472 ft | 337 kts | 296° |
| 2026-04-25 01:43 | -29.25577 | -51.26560 | 27923 ft | 336 kts | 296° |
| 2026-04-25 01:43 | -29.24372 | -51.28851 | 28285 ft | 338 kts | 296° |
| 2026-04-25 01:43 | -29.23167 | -51.31165 | 28666 ft | 338 kts | 295° |
| 2026-04-25 01:43 | -29.21978 | -51.33461 | 29081 ft | 337 kts | 296° |
| 2026-04-25 01:44 | -29.20761 | -51.35775 | 29412 ft | 339 kts | 296° |
| 2026-04-25 01:44 | -29.19552 | -51.38087 | 29717 ft | 341 kts | 295° |
| 2026-04-25 01:44 | -29.18336 | -51.40433 | 29998 ft | 339 kts | 296° |
| 2026-04-25 01:44 | -29.17136 | -51.42728 | 30027 ft | 343 kts | 296° |
| 2026-04-25 01:45 | -29.14616 | -51.47525 | 30053 ft | 360 kts | 296° |
| 2026-04-25 01:45 | -29.11994 | -51.52519 | 30049 ft | 375 kts | 296° |
| 2026-04-25 01:46 | -29.09257 | -51.57710 | 30049 ft | 389 kts | 295° |
| 2026-04-25 01:46 | -29.06467 | -51.63033 | 30035 ft | 389 kts | 296° |
| 2026-04-25 01:47 | -29.03682 | -51.68310 | 30062 ft | 393 kts | 296° |
| 2026-04-25 01:47 | -29.00854 | -51.73677 | 30047 ft | 394 kts | 296° |
| 2026-04-25 01:48 | -28.98036 | -51.79015 | 30042 ft | 394 kts | 296° |
| 2026-04-25 01:48 | -28.94725 | -51.84012 | 30055 ft | 407 kts | 310° |
| 2026-04-25 01:49 | -28.92449 | -51.86014 | 30057 ft | 418 kts | 319° |
| 2026-04-25 01:49 | -28.89844 | -51.87544 | 30058 ft | 427 kts | 328° |
| 2026-04-25 01:49 | -28.86961 | -51.88565 | 30062 ft | 445 kts | 337° |
| 2026-04-25 01:49 | -28.83942 | -51.89235 | 30064 ft | 443 kts | 338° |
| 2026-04-25 01:50 | -28.77843 | -51.90596 | 30059 ft | 440 kts | 338° |
| 2026-04-25 01:50 | -28.71772 | -51.91947 | 30065 ft | 445 kts | 338° |
| 2026-04-25 01:51 | -28.65696 | -51.93325 | 30071 ft | 445 kts | 338° |
| 2026-04-25 01:51 | -28.62743 | -51.94185 | 30068 ft | 432 kts | 330° |
| 2026-04-25 01:51 | -28.60011 | -51.95575 | 30078 ft | 424 kts | 321° |
| 2026-04-25 01:52 | -28.57630 | -51.97419 | 30081 ft | 411 kts | 312° |
| 2026-04-25 01:52 | -28.55626 | -51.99672 | 30081 ft | 403 kts | 304° |
| 2026-04-25 01:52 | -28.52156 | -52.04659 | 30074 ft | 400 kts | 302° |
| 2026-04-25 01:53 | -28.48706 | -52.09662 | 30065 ft | 404 kts | 305° |
| 2026-04-25 01:53 | -28.44282 | -52.13697 | 30069 ft | 424 kts | 322° |
| 2026-04-25 01:54 | -28.39271 | -52.17131 | 30064 ft | 417 kts | 319° |
| 2026-04-25 01:54 | -28.34378 | -52.20788 | 30065 ft | 419 kts | 318° |
| 2026-04-25 01:55 | -28.29565 | -52.24411 | 30066 ft | 411 kts | 317° |
| 2026-04-25 01:55 | -28.24792 | -52.28006 | 30070 ft | 415 kts | 318° |
| 2026-04-25 01:56 | -28.19982 | -52.31624 | 30070 ft | 414 kts | 318° |
| 2026-04-25 01:56 | -28.15203 | -52.35215 | 30066 ft | 415 kts | 318° |
| 2026-04-25 01:57 | -28.07973 | -52.40638 | 30065 ft | 416 kts | 318° |
| 2026-04-25 01:58 | -28.03132 | -52.44266 | 30062 ft | 415 kts | 318° |
| 2026-04-25 01:58 | -27.98315 | -52.47871 | 30059 ft | 417 kts | 318° |
| 2026-04-25 01:59 | -27.93490 | -52.51478 | 30061 ft | 416 kts | 318° |
| 2026-04-25 01:59 | -27.88647 | -52.55095 | 30064 ft | 416 kts | 319° |
| 2026-04-25 02:00 | -27.83801 | -52.58711 | 30060 ft | 417 kts | 319° |
| 2026-04-25 02:00 | -27.78988 | -52.62296 | 30063 ft | 416 kts | 319° |
| 2026-04-25 02:01 | -27.74134 | -52.65910 | 30073 ft | 416 kts | 319° |
| 2026-04-25 02:01 | -27.69271 | -52.69525 | 30078 ft | 416 kts | 319° |
| 2026-04-25 02:02 | -27.64428 | -52.73123 | 30077 ft | 418 kts | 319° |
| 2026-04-25 02:02 | -27.59572 | -52.76725 | 30071 ft | 420 kts | 319° |
| 2026-04-25 02:03 | -27.54680 | -52.80351 | 30066 ft | 421 kts | 319° |
| 2026-04-25 02:03 | -27.49583 | -52.83741 | 30070 ft | 426 kts | 324° |
| 2026-04-25 02:04 | -27.44389 | -52.86858 | 30055 ft | 424 kts | 324° |
| 2026-04-25 02:04 | -27.39180 | -52.89983 | 30054 ft | 426 kts | 324° |
| 2026-04-25 02:05 | -27.33931 | -52.93129 | 30039 ft | 428 kts | 324° |
| 2026-04-25 02:05 | -27.28684 | -52.96270 | 30036 ft | 429 kts | 324° |
| 2026-04-25 02:06 | -27.23423 | -52.99417 | 30027 ft | 429 kts | 324° |
| 2026-04-25 02:06 | -27.18182 | -53.02548 | 30021 ft | 429 kts | 324° |
| 2026-04-25 02:07 | -27.12923 | -53.05687 | 30022 ft | 428 kts | 325° |
| 2026-04-25 02:07 | -27.07641 | -53.08837 | 30022 ft | 429 kts | 325° |
| 2026-04-25 02:08 | -27.02380 | -53.11968 | 30046 ft | 429 kts | 325° |
| 2026-04-25 02:08 | -26.97114 | -53.15102 | 30042 ft | 430 kts | 325° |
| 2026-04-25 02:09 | -26.91815 | -53.18250 | 30044 ft | 431 kts | 325° |
| 2026-04-25 02:09 | -26.86512 | -53.21397 | 30050 ft | 430 kts | 325° |
| 2026-04-25 02:10 | -26.81228 | -53.24529 | 30050 ft | 431 kts | 325° |
| 2026-04-25 02:10 | -26.75960 | -53.27651 | 30054 ft | 431 kts | 326° |
| 2026-04-25 02:11 | -26.70669 | -53.30782 | 30056 ft | 430 kts | 326° |
| 2026-04-25 02:11 | -26.65366 | -53.33917 | 30060 ft | 433 kts | 326° |
| 2026-04-25 02:12 | -26.60061 | -53.37050 | 30062 ft | 431 kts | 326° |
| 2026-04-25 02:12 | -26.54796 | -53.40154 | 30056 ft | 416 kts | 326° |
| 2026-04-25 02:13 | -26.49731 | -53.43141 | 30066 ft | 412 kts | 326° |
| 2026-04-25 02:13 | -26.44660 | -53.46127 | 29920 ft | 407 kts | 326° |
| 2026-04-25 02:13 | -26.42145 | -53.47608 | 29128 ft | 417 kts | 326° |
| 2026-04-25 02:14 | -26.39609 | -53.49096 | 28687 ft | 404 kts | 326° |
| 2026-04-25 02:14 | -26.37165 | -53.50532 | 28220 ft | 396 kts | 326° |
| 2026-04-25 02:14 | -26.34743 | -53.51955 | 27788 ft | 391 kts | 326° |
| 2026-04-25 02:14 | -26.32343 | -53.53364 | 27357 ft | 390 kts | 325° |
| 2026-04-25 02:15 | -26.29947 | -53.54771 | 26926 ft | 391 kts | 326° |
| 2026-04-25 02:15 | -26.27545 | -53.56180 | 26493 ft | 388 kts | 326° |
| 2026-04-25 02:15 | -26.25166 | -53.57574 | 26086 ft | 385 kts | 326° |
| 2026-04-25 02:15 | -26.22793 | -53.58965 | 25716 ft | 387 kts | 326° |
| 2026-04-25 02:16 | -26.20416 | -53.60357 | 25344 ft | 386 kts | 326° |
| 2026-04-25 02:16 | -26.18026 | -53.61756 | 24895 ft | 385 kts | 326° |
| 2026-04-25 02:16 | -26.15675 | -53.63131 | 24384 ft | 380 kts | 325° |
| 2026-04-25 02:16 | -26.13376 | -53.64475 | 23897 ft | 371 kts | 325° |
| 2026-04-25 02:17 | -26.11112 | -53.65798 | 23488 ft | 363 kts | 326° |
| 2026-04-25 02:17 | -26.08884 | -53.67102 | 23095 ft | 362 kts | 326° |
| 2026-04-25 02:17 | -26.06655 | -53.68405 | 22696 ft | 363 kts | 326° |
| 2026-04-25 02:17 | -26.04406 | -53.69717 | 22290 ft | 362 kts | 326° |
| 2026-04-25 02:18 | -26.02201 | -53.71004 | 21892 ft | 360 kts | 326° |
| 2026-04-25 02:18 | -25.99996 | -53.72290 | 21494 ft | 358 kts | 326° |
| 2026-04-25 02:18 | -25.97768 | -53.73590 | 21093 ft | 355 kts | 326° |
| 2026-04-25 02:18 | -25.95597 | -53.74855 | 20702 ft | 354 kts | 326° |
| 2026-04-25 02:19 | -25.93423 | -53.76121 | 20311 ft | 352 kts | 327° |
| 2026-04-25 02:19 | -25.91267 | -53.77377 | 19922 ft | 351 kts | 327° |
| 2026-04-25 02:19 | -25.89094 | -53.78643 | 19531 ft | 349 kts | 327° |
| 2026-04-25 02:19 | -25.86968 | -53.79880 | 19148 ft | 347 kts | 327° |
| 2026-04-25 02:20 | -25.84813 | -53.81136 | 18759 ft | 345 kts | 326° |
| 2026-04-25 02:20 | -25.83042 | -53.82815 | 18401 ft | 332 kts | 304° |
| 2026-04-25 02:20 | -25.81770 | -53.84909 | 18042 ft | 331 kts | 300° |
| 2026-04-25 02:20 | -25.80532 | -53.87043 | 17665 ft | 330 kts | 300° |
| 2026-04-25 02:21 | -25.79292 | -53.89198 | 17296 ft | 328 kts | 300° |
| 2026-04-25 02:21 | -25.78064 | -53.91338 | 16930 ft | 327 kts | 300° |
| 2026-04-25 02:21 | -25.76853 | -53.93452 | 16571 ft | 326 kts | 300° |
| 2026-04-25 02:21 | -25.75648 | -53.95554 | 16213 ft | 325 kts | 300° |
| 2026-04-25 02:22 | -25.74425 | -53.97687 | 15850 ft | 324 kts | 301° |
| 2026-04-25 02:22 | -25.73219 | -53.99789 | 15492 ft | 323 kts | 301° |
| 2026-04-25 02:22 | -25.72018 | -54.01882 | 15135 ft | 322 kts | 301° |
| 2026-04-25 02:22 | -25.70829 | -54.03954 | 14782 ft | 322 kts | 301° |
| 2026-04-25 02:23 | -25.69631 | -54.06040 | 14426 ft | 321 kts | 301° |
| 2026-04-25 02:23 | -25.68437 | -54.08118 | 14072 ft | 321 kts | 301° |
| 2026-04-25 02:23 | -25.67240 | -54.10202 | 13716 ft | 320 kts | 301° |
| 2026-04-25 02:23 | -25.66050 | -54.12271 | 13363 ft | 319 kts | 301° |
| 2026-04-25 02:24 | -25.64848 | -54.14360 | 13007 ft | 318 kts | 301° |
| 2026-04-25 02:24 | -25.63668 | -54.16409 | 12656 ft | 318 kts | 301° |
| 2026-04-25 02:24 | -25.62483 | -54.18467 | 12305 ft | 317 kts | 301° |
| 2026-04-25 02:24 | -25.61289 | -54.20539 | 11952 ft | 316 kts | 301° |
| 2026-04-25 02:25 | -25.60116 | -54.22575 | 11602 ft | 313 kts | 301° |
| 2026-04-25 02:25 | -25.58968 | -54.24565 | 11259 ft | 307 kts | 301° |
| 2026-04-25 02:25 | -25.57823 | -54.26550 | 10919 ft | 300 kts | 301° |
| 2026-04-25 02:25 | -25.56713 | -54.28474 | 10588 ft | 293 kts | 301° |
| 2026-04-25 02:26 | -25.55632 | -54.30346 | 10270 ft | 286 kts | 301° |
| 2026-04-25 02:26 | -25.54575 | -54.32176 | 9956 ft | 278 kts | 301° |
| 2026-04-25 02:26 | -25.53550 | -54.33951 | 9653 ft | 272 kts | 301° |
| 2026-04-25 02:26 | -25.52547 | -54.35687 | 9358 ft | 265 kts | 302° |
| 2026-04-25 02:27 | -25.51560 | -54.37394 | 9067 ft | 259 kts | 302° |
| 2026-04-25 02:27 | -25.50600 | -54.39053 | 8783 ft | 253 kts | 302° |
| 2026-04-25 02:27 | -25.49664 | -54.40671 | 8508 ft | 248 kts | 302° |
| 2026-04-25 02:27 | -25.48743 | -54.42262 | 8236 ft | 243 kts | 303° |
| 2026-04-25 02:28 | -25.47849 | -54.43807 | 7973 ft | 238 kts | 303° |
| 2026-04-25 02:28 | -25.46971 | -54.45324 | 7715 ft | 233 kts | 303° |
| 2026-04-25 02:28 | -25.46099 | -54.46829 | 7458 ft | 228 kts | 303° |
| 2026-04-25 02:28 | -25.45257 | -54.48280 | 7211 ft | 224 kts | 303° |
| 2026-04-25 02:29 | -25.44426 | -54.49715 | 6966 ft | 219 kts | 303° |
| 2026-04-25 02:29 | -25.43609 | -54.51122 | 6726 ft | 215 kts | 303° |
| 2026-04-25 02:29 | -25.42810 | -54.52499 | 6494 ft | 210 kts | 303° |
| 2026-04-25 02:29 | -25.42039 | -54.53828 | 6337 ft | 201 kts | 303° |
| 2026-04-25 02:30 | -25.41289 | -54.55121 | 6077 ft | 200 kts | 303° |
| 2026-04-25 02:30 | -25.40534 | -54.56420 | 5843 ft | 200 kts | 303° |
| 2026-04-25 02:30 | -25.39796 | -54.57728 | 5612 ft | 201 kts | 294° |
| 2026-04-25 02:30 | -25.39744 | -54.59233 | 5411 ft | 204 kts | 248° |
| 2026-04-25 02:31 | -25.40695 | -54.60376 | 5133 ft | 212 kts | 207° |
| 2026-04-25 02:31 | -25.42068 | -54.61006 | 4865 ft | 211 kts | 203° |
| 2026-04-25 02:31 | -25.43428 | -54.61591 | 4586 ft | 209 kts | 202° |
| 2026-04-25 02:31 | -25.44777 | -54.62162 | 4340 ft | 206 kts | 202° |
| 2026-04-25 02:32 | -25.46125 | -54.62728 | 4107 ft | 205 kts | 202° |
| 2026-04-25 02:32 | -25.47479 | -54.63119 | 3872 ft | 200 kts | 175° |
| 2026-04-25 02:32 | -25.48703 | -54.62519 | 3660 ft | 195 kts | 135° |
| 2026-04-25 02:32 | -25.49628 | -54.61425 | 3406 ft | 195 kts | 132° |
| 2026-04-25 02:33 | -25.50509 | -54.60299 | 3128 ft | 193 kts | 130° |
| 2026-04-25 02:33 | -25.51382 | -54.59185 | 2857 ft | 190 kts | 131° |
| 2026-04-25 02:33 | -25.52226 | -54.58111 | 2590 ft | 178 kts | 131° |
| 2026-04-25 02:33 | -25.53000 | -54.57127 | 2384 ft | 161 kts | 131° |
| 2026-04-25 02:34 | -25.53702 | -54.56237 | 2155 ft | 145 kts | 131° |
| 2026-04-25 02:34 | -25.54338 | -54.55429 | 1950 ft | 135 kts | 131° |
| 2026-04-25 02:34 | -25.54951 | -54.54645 | 1786 ft | 134 kts | 131° |
| 2026-04-25 02:34 | -25.55561 | -54.53868 | 1621 ft | 135 kts | 131° |
| 2026-04-25 02:35 | -25.56182 | -54.53085 | 1445 ft | 135 kts | 132° |
| 2026-04-25 02:35 | -25.56802 | -54.52304 | 1254 ft | 135 kts | 130° |
| 2026-04-25 02:35 | -25.57407 | -54.51512 | 1088 ft | 134 kts | 130° |
| 2026-04-25 02:35 | -25.58021 | -54.50723 | 927 ft | 134 kts | 131° |
| 2026-04-25 02:36 | -25.58638 | -54.49942 | 728 ft | 133 kts | 131° |
| 2026-04-25 02:36 | -25.59216 | -54.49212 | 1105 ft | 123 kts | 131° |
| 2026-04-25 02:36 | -25.59814 | -54.48461 | 1399 ft | 135 kts | 131° |
| 2026-04-25 02:36 | -25.60406 | -54.47697 | 1904 ft | 127 kts | 130° |
| 2026-04-25 02:37 | -25.60981 | -54.46956 | 2229 ft | 136 kts | 130° |
| 2026-04-25 02:37 | -25.61620 | -54.46139 | 2643 ft | 135 kts | 130° |
| 2026-04-25 02:37 | -25.62189 | -54.45404 | 2523 ft | 130 kts | 130° |
| 2026-04-25 02:37 | -25.62859 | -54.44544 | 2292 ft | 156 kts | 131° |
| 2026-04-25 02:38 | -25.63479 | -54.43778 | 3105 ft | 130 kts | 134° |
| 2026-04-25 02:38 | -25.64184 | -54.42891 | 3052 ft | 172 kts | 130° |
| 2026-04-25 02:38 | -25.65014 | -54.41801 | 3031 ft | 192 kts | 130° |
| 2026-04-25 02:38 | -25.65883 | -54.40670 | 3004 ft | 192 kts | 130° |
| 2026-04-25 02:39 | -25.66745 | -54.39553 | 2992 ft | 191 kts | 130° |
| 2026-04-25 02:39 | -25.67617 | -54.38427 | 2991 ft | 191 kts | 130° |
| 2026-04-25 02:39 | -25.68482 | -54.37310 | 2991 ft | 191 kts | 131° |
| 2026-04-25 02:39 | -25.69356 | -54.36184 | 2992 ft | 191 kts | 131° |
| 2026-04-25 02:40 | -25.70213 | -54.35079 | 2992 ft | 191 kts | 131° |
| 2026-04-25 02:40 | -25.71089 | -54.33949 | 2992 ft | 191 kts | 131° |
| 2026-04-25 02:40 | -25.71958 | -54.32828 | 2992 ft | 191 kts | 131° |
| 2026-04-25 02:40 | -25.72865 | -54.31781 | 2951 ft | 191 kts | 147° |
| 2026-04-25 02:41 | -25.73923 | -54.30888 | 2623 ft | 195 kts | 123° |
| 2026-04-25 02:41 | -25.74200 | -54.29487 | 2455 ft | 183 kts | 73° |
| 2026-04-25 02:41 | -25.73437 | -54.28429 | 2254 ft | 179 kts | 26° |
| 2026-04-25 02:41 | -25.72255 | -54.28221 | 2212 ft | 169 kts | 347° |
| 2026-04-25 02:42 | -25.71252 | -54.28848 | 2205 ft | 167 kts | 309° |
| 2026-04-25 02:42 | -25.70719 | -54.29967 | 2229 ft | 165 kts | 290° |
| 2026-04-25 02:42 | -25.70317 | -54.31177 | 2296 ft | 165 kts | 289° |
| 2026-04-25 02:42 | -25.69926 | -54.32335 | 2603 ft | 158 kts | 290° |
| 2026-04-25 02:43 | -25.69522 | -54.33466 | 2706 ft | 160 kts | 292° |
| 2026-04-25 02:43 | -25.69085 | -54.34601 | 2739 ft | 160 kts | 293° |
| 2026-04-25 02:43 | -25.68609 | -54.35722 | 2769 ft | 159 kts | 296° |
| 2026-04-25 02:43 | -25.68080 | -54.36808 | 2733 ft | 160 kts | 299° |
| 2026-04-25 02:44 | -25.67515 | -54.37866 | 2673 ft | 159 kts | 302° |
| 2026-04-25 02:44 | -25.66927 | -54.38853 | 2593 ft | 150 kts | 303° |
| 2026-04-25 02:44 | -25.66340 | -54.39790 | 2405 ft | 149 kts | 304° |
| 2026-04-25 02:44 | -25.65726 | -54.40707 | 2211 ft | 146 kts | 307° |
| 2026-04-25 02:45 | -25.65095 | -54.41585 | 1987 ft | 145 kts | 309° |
| 2026-04-25 02:45 | -25.64458 | -54.42444 | 1831 ft | 143 kts | 308° |
| 2026-04-25 02:45 | -25.63813 | -54.43289 | 1678 ft | 143 kts | 310° |
| 2026-04-25 02:45 | -25.63170 | -54.44122 | 1561 ft | 142 kts | 309° |
| 2026-04-25 02:46 | -25.62538 | -54.44957 | 1428 ft | 141 kts | 310° |
| 2026-04-25 02:46 | -25.61889 | -54.45785 | 1279 ft | 141 kts | 310° |
| 2026-04-25 02:46 | -25.61247 | -54.46610 | 1091 ft | 141 kts | 310° |
| 2026-04-25 02:46 | -25.60615 | -54.47413 | 925 ft | 139 kts | 310° |
| 2026-04-25 02:47 | -25.59981 | -54.48229 | 774 ft | 137 kts | 310° |
| 2026-04-25 02:47 | -25.59520 | -54.48816 | 772 ft | 59 kts | 311° |
| 2026-04-25 02:47 | -25.59334 | -54.49039 | 772 ft | 20 kts | 321° |
| 2026-04-25 02:47 | -25.59312 | -54.49078 | 772 ft | 3 kts | 189° |
| 2026-04-25 02:48 | -25.59339 | -54.49052 | 772 ft | 7 kts | 133° |
| 2026-04-25 02:48 | -25.59391 | -54.49012 | 772 ft | 10 kts | 194° |
| 2026-04-25 02:48 | -25.59450 | -54.49065 | 772 ft | 11 kts | 218° |
| 2026-04-25 02:48 | -25.59516 | -54.49059 | 772 ft | 10 kts | 134° |
| 2026-04-25 02:49 | -25.59558 | -54.49008 | 772 ft | 4 kts | 130° |
| 2026-04-25 02:49 | -25.59583 | -54.49005 | 772 ft | 3 kts | 215° |
| 2026-04-25 02:49 | -25.59608 | -54.49028 | 772 ft | 4 kts | 220° |
| 2026-04-25 02:49 | -25.59629 | -54.49048 | 772 ft | 1 kts | 221° |
| 2026-04-25 02:50 | -25.59630 | -54.49048 | 772 ft | 0 kts | 221° |